Terminal Aerodrome Forecast
Issued by NWS

Home | Current Version | Previous Version | Text Only | Print | Product List | Glossary On
Versions: 1 2 3 4 5 6 7 8 9 10 11 12 13 14 15 16 17 18 19 20 21 22 23 24 25 26
000
FTUS42 KMLB 251127
TAFFPR
TAF
KFPR 251127Z 2512/2612 29003KT P6SM SKC
      TEMPO 2512/2513 5SM BR
     FM251400 29006KT P6SM SCT030 SCT250
     FM251800 09009KT P6SM SCT040
     FM260200 VRB02KT P6SM SCT060 BKN250=

USA.gov is the U.S. government's official web portal to all federal, state and local government web resources and services.